Time,TemperatureF,DewpointF,PressureIn,WindDirection,WindDirectionDegrees,WindSpeedMPH,WindSpeedGustMPH,Humidity,HourlyPrecipIn,Conditions,Clouds,dailyrainin,SoftwareType,DateUTC
2013-03-04 00:01:00,36.0,-99.9,29.80,NW,321,15.0,27.0,-999,-99.99,,,-99.99,,2013-03-04 05:01:00,
2013-03-04 00:11:00,36.0,-99.9,29.80,NW,321,14.0,24.0,-999,-99.99,,,-99.99,,2013-03-04 05:11:00,
2013-03-04 00:22:00,36.0,-99.9,29.80,NNW,327,11.0,23.0,-999,-99.99,,,-99.99,,2013-03-04 05:22:00,
2013-03-04 00:32:00,36.0,-99.9,29.80,NNW,331,12.0,23.0,-999,-99.99,,,-99.99,,2013-03-04 05:32:00,
2013-03-04 00:43:00,36.0,-99.9,29.81,NNW,329,12.0,23.0,-999,-99.99,,,-99.99,,2013-03-04 05:43:00,
2013-03-04 00:52:00,36.0,-99.9,29.81,NW,326,14.0,24.0,-999,-99.99,,,-99.99,,2013-03-04 05:52:00,
2013-03-04 01:02:00,36.0,-99.9,29.81,NW,323,14.0,26.0,-999,-99.99,,,-99.99,,2013-03-04 06:02:00,
2013-03-04 01:11:00,35.0,-99.9,29.81,NW,326,12.0,24.0,-999,-99.99,,,-99.99,,2013-03-04 06:11:00,
2013-03-04 01:22:00,35.0,-99.9,29.81,NW,321,13.0,23.0,-999,-99.99,,,-99.99,,2013-03-04 06:22:00,
2013-03-04 01:32:00,35.0,-99.9,29.81,NNW,328,13.0,25.0,-999,-99.99,,,-99.99,,2013-03-04 06:32:00,
2013-03-04 01:42:00,35.0,-99.9,29.82,NW,324,13.0,24.0,-999,-99.99,,,-99.99,,2013-03-04 06:42:00,
2013-03-04 01:52:00,35.0,-99.9,29.82,NW,322,13.0,31.0,-999,-99.99,,,-99.99,,2013-03-04 06:52:00,
2013-03-04 02:02:00,35.0,-99.9,29.82,NW,324,13.0,30.0,-999,-99.99,,,-99.99,,2013-03-04 07:02:00,
2013-03-04 02:11:00,35.0,-99.9,29.82,NW,324,14.0,26.0,-999,-99.99,,,-99.99,,2013-03-04 07:11:00,
2013-03-04 02:22:00,35.0,-99.9,29.82,NNW,328,15.0,27.0,-999,-99.99,,,-99.99,,2013-03-04 07:22:00,
2013-03-04 02:32:00,35.0,-99.9,29.82,NW,324,10.0,21.0,-999,-99.99,,,-99.99,,2013-03-04 07:32:00,
2013-03-04 02:42:00,35.0,-99.9,29.82,NW,325,11.0,22.0,-999,-99.99,,,-99.99,,2013-03-04 07:42:00,
2013-03-04 02:52:00,35.0,-99.9,29.82,NW,324,15.0,27.0,-999,-99.99,,,-99.99,,2013-03-04 07:52:00,
2013-03-04 03:02:00,35.0,-99.9,29.82,NW,326,13.0,27.0,-999,-99.99,,,-99.99,,2013-03-04 08:02:00,
2013-03-04 03:12:00,35.0,-99.9,29.82,NNW,327,12.0,20.0,-999,-99.99,,,-99.99,,2013-03-04 08:12:00,
2013-03-04 03:22:00,34.0,-99.9,29.82,NW,324,13.0,23.0,-999,-99.99,,,-99.99,,2013-03-04 08:22:00,
2013-03-04 03:32:00,35.0,-99.9,29.82,NW,323,13.0,21.0,-999,-99.99,,,-99.99,,2013-03-04 08:32:00,
2013-03-04 03:42:00,34.0,-99.9,29.82,NW,324,11.0,23.0,-999,-99.99,,,-99.99,,2013-03-04 08:42:00,
2013-03-04 03:52:00,34.0,-99.9,29.82,NW,324,15.0,29.0,-999,-99.99,,,-99.99,,2013-03-04 08:52:00,
2013-03-04 04:02:00,34.0,-99.9,29.82,NW,325,12.0,24.0,-999,-99.99,,,-99.99,,2013-03-04 09:02:00,
2013-03-04 04:11:00,34.0,-99.9,29.82,NW,320,15.0,27.0,-999,-99.99,,,-99.99,,2013-03-04 09:11:00,
2013-03-04 04:22:00,34.0,-99.9,29.82,NW,320,15.0,26.0,-999,-99.99,,,-99.99,,2013-03-04 09:22:00,
2013-03-04 04:32:00,34.0,-99.9,29.83,NW,325,15.0,27.0,-999,-99.99,,,-99.99,,2013-03-04 09:32:00,
2013-03-04 04:42:00,34.0,-99.9,29.83,NW,320,15.0,28.0,-999,-99.99,,,-99.99,,2013-03-04 09:42:00,
2013-03-04 04:52:00,34.0,-99.9,29.83,NW,326,15.0,23.0,-999,-99.99,,,-99.99,,2013-03-04 09:52:00,
2013-03-04 05:01:00,33.0,-99.9,29.83,NW,321,20.0,32.0,-999,-99.99,,,-99.99,,2013-03-04 10:01:00,
2013-03-04 05:12:00,33.0,-99.9,29.83,NW,320,19.0,30.0,-999,-99.99,,,-99.99,,2013-03-04 10:12:00,
2013-03-04 05:22:00,33.0,-99.9,29.84,NW,320,19.0,30.0,-999,-99.99,,,-99.99,,2013-03-04 10:22:00,
2013-03-04 05:32:00,33.0,-99.9,29.84,NW,321,19.0,32.0,-999,-99.99,,,-99.99,,2013-03-04 10:32:00,
2013-03-04 05:42:00,33.0,-99.9,29.84,NW,320,23.0,36.0,-999,-99.99,,,-99.99,,2013-03-04 10:42:00,
2013-03-04 05:52:00,32.0,-99.9,29.85,NNW,327,17.0,35.0,-999,-99.99,,,-99.99,,2013-03-04 10:52:00,
2013-03-04 06:02:00,32.0,-99.9,29.85,NW,320,20.0,32.0,-999,-99.99,,,-99.99,,2013-03-04 11:02:00,
2013-03-04 06:11:00,32.0,-99.9,29.85,NW,321,21.0,38.0,-999,-99.99,,,-99.99,,2013-03-04 11:11:00,
2013-03-04 06:22:00,32.0,-99.9,29.86,NW,322,21.0,32.0,-999,-99.99,,,-99.99,,2013-03-04 11:22:00,
2013-03-04 06:32:00,32.0,-99.9,29.86,NW,322,19.0,30.0,-999,-99.99,,,-99.99,,2013-03-04 11:32:00,
2013-03-04 06:42:00,-999.0,-99.9,29.86,NW,322,19.0,33.0,-999,-99.99,,,-99.99,,2013-03-04 11:42:00,
2013-03-04 06:52:00,-999.0,-99.9,29.86,NW,324,22.0,33.0,-999,-99.99,,,-99.99,,2013-03-04 11:52:00,
2013-03-04 07:02:00,32.0,-99.9,29.87,NW,320,22.0,35.0,-999,-99.99,,,-99.99,,2013-03-04 12:02:00,
2013-03-04 07:12:00,-999.0,-99.9,29.87,NNW,329,19.0,31.0,-999,-99.99,,,-99.99,,2013-03-04 12:12:00,
2013-03-04 07:22:00,-999.0,-99.9,29.88,NNW,332,17.0,30.0,-999,-99.99,,,-99.99,,2013-03-04 12:22:00,
2013-03-04 07:32:00,-999.0,-99.9,29.88,NW,323,22.0,31.0,-999,-99.99,,,-99.99,,2013-03-04 12:32:00,
2013-03-04 07:43:00,-999.0,-99.9,29.88,NNW,327,19.0,33.0,-999,-99.99,,,-99.99,,2013-03-04 12:43:00,
2013-03-04 07:53:00,-999.0,-99.9,29.88,NW,320,21.0,34.0,-999,-99.99,,,-99.99,,2013-03-04 12:53:00,
2013-03-04 08:02:00,-999.0,-99.9,29.88,NW,322,24.0,30.0,-999,-99.99,,,-99.99,,2013-03-04 13:02:00,
2013-03-04 08:11:00,-999.0,-99.9,29.89,NW,321,28.0,34.0,-999,-99.99,,,-99.99,,2013-03-04 13:11:00,
2013-03-04 08:22:00,-999.0,-99.9,29.89,NW,325,24.0,30.0,-999,-99.99,,,-99.99,,2013-03-04 13:22:00,
2013-03-04 08:32:00,-999.0,-99.9,29.89,NW,326,26.0,32.0,-999,-99.99,,,-99.99,,2013-03-04 13:32:00,
2013-03-04 08:42:00,-999.0,-99.9,29.89,NNW,330,26.0,33.0,-999,-99.99,,,-99.99,,2013-03-04 13:42:00,
2013-03-04 08:52:00,-999.0,-99.9,29.89,NW,324,26.0,33.0,-999,-99.99,,,-99.99,,2013-03-04 13:52:00,
2013-03-04 09:01:00,32.0,-99.9,29.89,NW,324,26.0,35.0,-999,-99.99,,,-99.99,,2013-03-04 14:01:00,
2013-03-04 09:12:00,-999.0,-99.9,29.89,NW,322,26.0,34.0,-999,-99.99,,,-99.99,,2013-03-04 14:12:00,
2013-03-04 09:22:00,32.0,-99.9,29.89,NW,325,25.0,32.0,-999,-99.99,,,-99.99,,2013-03-04 14:22:00,
2013-03-04 09:32:00,-999.0,-99.9,29.89,NW,323,23.0,30.0,-999,-99.99,,,-99.99,,2013-03-04 14:32:00,
2013-03-04 09:42:00,33.0,-99.9,29.89,NW,321,26.0,31.0,-999,-99.99,,,-99.99,,2013-03-04 14:42:00,
2013-03-04 09:52:00,-999.0,-99.9,29.89,NW,322,26.0,35.0,-999,-99.99,,,-99.99,,2013-03-04 14:52:00,
2013-03-04 10:02:00,-999.0,-99.9,29.90,NW,326,25.0,32.0,-999,-99.99,,,-99.99,,2013-03-04 15:02:00,
2013-03-04 10:11:00,33.0,-99.9,29.90,NNW,331,23.0,30.0,-999,-99.99,,,-99.99,,2013-03-04 15:11:00,
2013-03-04 10:22:00,33.0,-99.9,29.90,NNW,327,22.0,32.0,-999,-99.99,,,-99.99,,2013-03-04 15:22:00,
2013-03-04 10:32:00,33.0,-99.9,29.90,NW,326,26.0,35.0,-999,-99.99,,,-99.99,,2013-03-04 15:32:00,
2013-03-04 10:42:00,34.0,-99.9,29.89,NNW,328,25.0,32.0,-999,-99.99,,,-99.99,,2013-03-04 15:42:00,
2013-03-04 10:52:00,33.0,-99.9,29.89,NNW,327,29.0,36.0,-999,-99.99,,,-99.99,,2013-03-04 15:52:00,
2013-03-04 11:03:00,34.0,-99.9,29.89,WNW,285,7.0,24.0,-999,-99.99,,,-99.99,,2013-03-04 16:03:00,
2013-03-04 11:11:00,35.0,-99.9,29.89,NW,325,16.0,29.0,-999,-99.99,,,-99.99,,2013-03-04 16:11:00,
2013-03-04 11:22:00,35.0,-99.9,29.89,NW,322,17.0,30.0,-999,-99.99,,,-99.99,,2013-03-04 16:22:00,
2013-03-04 11:32:00,34.0,-99.9,29.88,NW,324,28.0,35.0,-999,-99.99,,,-99.99,,2013-03-04 16:32:00,
2013-03-04 11:42:00,34.0,-99.9,29.88,NW,323,29.0,35.0,-999,-99.99,,,-99.99,,2013-03-04 16:42:00,
2013-03-04 11:52:00,34.0,-99.9,29.89,NW,326,23.0,32.0,-999,-99.99,,,-99.99,,2013-03-04 16:52:00,
2013-03-04 12:02:00,34.0,-99.9,29.89,NW,326,25.0,34.0,-999,-99.99,,,-99.99,,2013-03-04 17:02:00,
2013-03-04 12:11:00,35.0,-99.9,29.89,NW,325,29.0,33.0,-999,-99.99,,,-99.99,,2013-03-04 17:11:00,
2013-03-04 12:22:00,35.0,-99.9,29.88,NNW,327,21.0,28.0,-999,-99.99,,,-99.99,,2013-03-04 17:22:00,
2013-03-04 12:32:00,35.0,-99.9,29.88,NW,325,27.0,34.0,-999,-99.99,,,-99.99,,2013-03-04 17:32:00,
2013-03-04 12:42:00,35.0,-99.9,29.88,NW,324,25.0,34.0,-999,-99.99,,,-99.99,,2013-03-04 17:42:00,
2013-03-04 12:52:00,35.0,-99.9,29.88,NNW,329,22.0,29.0,-999,-99.99,,,-99.99,,2013-03-04 17:52:00,
2013-03-04 13:02:00,36.0,-99.9,29.88,NW,319,22.0,29.0,-999,-99.99,,,-99.99,,2013-03-04 18:02:00,
2013-03-04 13:11:00,37.0,-99.9,29.88,NW,326,25.0,32.0,-999,-99.99,,,-99.99,,2013-03-04 18:11:00,
2013-03-04 13:22:00,35.0,-99.9,29.87,NW,326,26.0,33.0,-999,-99.99,,,-99.99,,2013-03-04 18:22:00,
2013-03-04 13:33:00,36.0,-99.9,29.87,NW,324,24.0,31.0,-999,-99.99,,,-99.99,,2013-03-04 18:33:00,
2013-03-04 13:43:00,37.0,-99.9,29.87,NW,322,24.0,32.0,-999,-99.99,,,-99.99,,2013-03-04 18:43:00,
2013-03-04 13:52:00,37.0,-99.9,29.86,NW,326,26.0,32.0,-999,-99.99,,,-99.99,,2013-03-04 18:52:00,
2013-03-04 14:02:00,36.0,-99.9,29.86,NNW,332,24.0,30.0,-999,-99.99,,,-99.99,,2013-03-04 19:02:00,
2013-03-04 14:12:00,37.0,-99.9,29.86,NW,322,25.0,34.0,-999,-99.99,,,-99.99,,2013-03-04 19:12:00,
2013-03-04 14:22:00,37.0,-99.9,29.85,NW,322,25.0,31.0,-999,-99.99,,,-99.99,,2013-03-04 19:22:00,
2013-03-04 14:32:00,37.0,-99.9,29.85,NW,314,15.0,32.0,-999,-99.99,,,-99.99,,2013-03-04 19:32:00,
2013-03-04 14:42:00,38.0,-99.9,29.85,NW,321,13.0,26.0,-999,-99.99,,,-99.99,,2013-03-04 19:42:00,
2013-03-04 14:52:00,38.0,-99.9,29.85,NW,322,12.0,25.0,-999,-99.99,,,-99.99,,2013-03-04 19:52:00,
2013-03-04 15:02:00,38.0,-99.9,29.85,NW,325,24.0,32.0,-999,-99.99,,,-99.99,,2013-03-04 20:02:00,
2013-03-04 15:12:00,38.0,-99.9,29.85,NW,326,23.0,31.0,-999,-99.99,,,-99.99,,2013-03-04 20:12:00,
2013-03-04 15:22:00,38.0,-99.9,29.85,NW,322,25.0,32.0,-999,-99.99,,,-99.99,,2013-03-04 20:22:00,
2013-03-04 15:33:00,38.0,-99.9,29.85,NW,322,22.0,28.0,-999,-99.99,,,-99.99,,2013-03-04 20:33:00,
2013-03-04 15:42:00,38.0,-99.9,29.85,NW,325,23.0,29.0,-999,-99.99,,,-99.99,,2013-03-04 20:42:00,
2013-03-04 15:53:00,38.0,-99.9,29.85,NW,325,25.0,34.0,-999,-99.99,,,-99.99,,2013-03-04 20:53:00,
2013-03-04 16:02:00,38.0,-99.9,29.85,NW,321,21.0,27.0,-999,-99.99,,,-99.99,,2013-03-04 21:02:00,
2013-03-04 16:12:00,39.0,-99.9,29.85,NNW,328,21.0,26.0,-999,-99.99,,,-99.99,,2013-03-04 21:12:00,
2013-03-04 16:22:00,39.0,-99.9,29.85,NNW,328,23.0,30.0,-999,-99.99,,,-99.99,,2013-03-04 21:22:00,
2013-03-04 16:32:00,39.0,-99.9,29.85,NNW,328,21.0,26.0,-999,-99.99,,,-99.99,,2013-03-04 21:32:00,
2013-03-04 16:43:00,39.0,-99.9,29.85,NW,319,19.0,26.0,-999,-99.99,,,-99.99,,2013-03-04 21:43:00,
2013-03-04 16:53:00,39.0,-99.9,29.85,NW,326,22.0,28.0,-999,-99.99,,,-99.99,,2013-03-04 21:53:00,
2013-03-04 17:02:00,39.0,-99.9,29.85,NW,324,21.0,29.0,-999,-99.99,,,-99.99,,2013-03-04 22:02:00,
2013-03-04 17:12:00,39.0,-99.9,29.85,NW,326,23.0,28.0,-999,-99.99,,,-99.99,,2013-03-04 22:12:00,
2013-03-04 17:22:00,39.0,-99.9,29.86,NNW,332,19.0,23.0,-999,-99.99,,,-99.99,,2013-03-04 22:22:00,
2013-03-04 17:32:00,39.0,-99.9,29.86,NNW,333,20.0,27.0,-999,-99.99,,,-99.99,,2013-03-04 22:32:00,
2013-03-04 17:43:00,38.0,-99.9,29.86,NNW,333,19.0,27.0,-999,-99.99,,,-99.99,,2013-03-04 22:43:00,
2013-03-04 17:52:00,38.0,-99.9,29.87,NNW,334,20.0,28.0,-999,-99.99,,,-99.99,,2013-03-04 22:52:00,
2013-03-04 18:02:00,38.0,-99.9,29.88,NNW,334,19.0,26.0,-999,-99.99,,,-99.99,,2013-03-04 23:02:00,
2013-03-04 18:12:00,39.0,-99.9,29.88,NNW,335,14.0,26.0,-999,-99.99,,,-99.99,,2013-03-04 23:12:00,
2013-03-04 18:22:00,39.0,-99.9,29.88,NNW,337,14.0,23.0,-999,-99.99,,,-99.99,,2013-03-04 23:22:00,
2013-03-04 18:32:00,39.0,-99.9,29.88,NNW,333,18.0,33.0,-999,-99.99,,,-99.99,,2013-03-04 23:32:00,
2013-03-04 18:42:00,38.0,-99.9,29.89,NNW,337,20.0,28.0,-999,-99.99,,,-99.99,,2013-03-04 23:42:00,
2013-03-04 18:52:00,38.0,-99.9,29.89,NNW,339,18.0,28.0,-999,-99.99,,,-99.99,,2013-03-04 23:52:00,
2013-03-04 19:02:00,38.0,-99.9,29.90,NNW,332,20.0,29.0,-999,-99.99,,,-99.99,,2013-03-05 00:02:00,
2013-03-04 19:12:00,38.0,-99.9,29.91,NNW,335,20.0,27.0,-999,-99.99,,,-99.99,,2013-03-05 00:12:00,
2013-03-04 19:22:00,38.0,-99.9,29.91,NNW,334,20.0,29.0,-999,-99.99,,,-99.99,,2013-03-05 00:22:00,
2013-03-04 19:33:00,38.0,-99.9,29.91,NNW,333,21.0,28.0,-999,-99.99,,,-99.99,,2013-03-05 00:33:00,
2013-03-04 19:42:00,38.0,-99.9,29.92,NNW,340,19.0,28.0,-999,-99.99,,,-99.99,,2013-03-05 00:42:00,
2013-03-04 19:52:00,38.0,-99.9,29.93,NNW,338,19.0,26.0,-999,-99.99,,,-99.99,,2013-03-05 00:52:00,
2013-03-04 20:02:00,38.0,-99.9,29.92,NNW,334,23.0,32.0,-999,-99.99,,,-99.99,,2013-03-05 01:02:00,
2013-03-04 20:12:00,37.0,-99.9,29.92,NNW,332,24.0,37.0,-999,-99.99,,,-99.99,,2013-03-05 01:12:00,
2013-03-04 20:22:00,37.0,-99.9,29.93,NNW,333,26.0,37.0,-999,-99.99,,,-99.99,,2013-03-05 01:22:00,
2013-03-04 20:33:00,37.0,-99.9,29.93,NNW,333,22.0,33.0,-999,-99.99,,,-99.99,,2013-03-05 01:33:00,
2013-03-04 20:42:00,37.0,-99.9,29.93,NNW,332,27.0,36.0,-999,-99.99,,,-99.99,,2013-03-05 01:42:00,
2013-03-04 20:52:00,37.0,-99.9,29.94,NNW,333,27.0,35.0,-999,-99.99,,,-99.99,,2013-03-05 01:52:00,
2013-03-04 21:02:00,37.0,-99.9,29.94,NNW,330,26.0,36.0,-999,-99.99,,,-99.99,,2013-03-05 02:02:00,
2013-03-04 21:12:00,37.0,-99.9,29.95,NNW,333,26.0,35.0,-999,-99.99,,,-99.99,,2013-03-05 02:12:00,
2013-03-04 21:22:00,37.0,-99.9,29.95,NNW,328,24.0,33.0,-999,-99.99,,,-99.99,,2013-03-05 02:22:00,
2013-03-04 21:33:00,36.0,-99.9,29.95,NNW,330,25.0,34.0,-999,-99.99,,,-99.99,,2013-03-05 02:33:00,
2013-03-04 21:42:00,37.0,-99.9,29.96,NNW,329,19.0,31.0,-999,-99.99,,,-99.99,,2013-03-05 02:42:00,
2013-03-04 21:53:00,36.0,-99.9,29.96,NW,325,19.0,29.0,-999,-99.99,,,-99.99,,2013-03-05 02:53:00,
2013-03-04 22:02:00,36.0,-99.9,29.96,NW,324,17.0,33.0,-999,-99.99,,,-99.99,,2013-03-05 03:02:00,
2013-03-04 22:12:00,36.0,-99.9,29.96,NW,323,19.0,30.0,-999,-99.99,,,-99.99,,2013-03-05 03:12:00,
2013-03-04 22:22:00,36.0,-99.9,29.96,NNW,327,17.0,31.0,-999,-99.99,,,-99.99,,2013-03-05 03:22:00,
2013-03-04 22:32:00,36.0,-99.9,29.97,NW,324,17.0,28.0,-999,-99.99,,,-99.99,,2013-03-05 03:32:00,
2013-03-04 22:42:00,36.0,-99.9,29.97,NW,320,21.0,34.0,-999,-99.99,,,-99.99,,2013-03-05 03:42:00,
2013-03-04 22:52:00,36.0,-99.9,29.97,NW,320,17.0,31.0,-999,-99.99,,,-99.99,,2013-03-05 03:52:00,
2013-03-04 23:02:00,36.0,-99.9,29.97,NW,320,15.0,29.0,-999,-99.99,,,-99.99,,2013-03-05 04:02:00,
2013-03-04 23:12:00,35.0,-99.9,29.97,NW,322,16.0,28.0,-999,-99.99,,,-99.99,,2013-03-05 04:12:00,
2013-03-04 23:22:00,35.0,-99.9,29.97,NW,323,17.0,28.0,-999,-99.99,,,-99.99,,2013-03-05 04:22:00,
2013-03-04 23:32:00,35.0,-99.9,29.97,NW,322,16.0,28.0,-999,-99.99,,,-99.99,,2013-03-05 04:32:00,
2013-03-04 23:42:00,35.0,-99.9,29.97,NW,324,15.0,28.0,-999,-99.99,,,-99.99,,2013-03-05 04:42:00,
2013-03-04 23:52:00,35.0,-99.9,29.97,NNW,329,15.0,26.0,-999,-99.99,,,-99.99,,2013-03-05 04:52:00,